Freeman Township, Maine
Current Conditions -  °F | °C
As of 12:35 PM on Friday 19 Dec 2014 (Local Time) from KWVL Reporting Station
Overcast Overcast  
Wind Chill: 21°   Ceiling: 2800
Heat Index: 30°   Visibility: 10mi
Dew Point: 19°   Wind: 10mph
Humidity: 64%   Direction: 320°NW
Pressure: 29.88"   Gusts: NA
Location:  44.8564°N, 70.2117°W
Report Text: KWVL 191735Z 32009KT 10SM OVC028 M01/M07 A2988 RMK AO1
Loading
Personal Weather Stations






























Interactive Weather Map New forecast layout! Learn more

10-Day Weather Forecast

Advertisements
Track Severe Weather on mobile